Time;durP1;ratioP1;P1;durP2;ratioP2;P2;SDS_P1;SDS_P2;PMS_P1;PMS_P2;Temp;Humidity;BMP_temperature;BMP_pressure;BME280_temperature;BME280_humidity;BME280_pressure;Samples;Min_cycle;Max_cycle;Signal;HPM_P1;HPM_P2
2022/05/15 00:00:43;;;;;;;;;6.25;6.25;;;;;21.26;39.32;101320.16;5029499;28;45253;-76
2022/05/15 00:03:13;;;;;;;;;7.00;6.00;;;;;21.24;39.58;101312.13;5036195;28;46107;-75
2022/05/15 00:05:39;;;;;;;;;6.75;6.75;;;;;21.25;39.63;101316.59;5029572;28;45362;-75
2022/05/15 00:08:05;;;;;;;;;9.00;6.00;;;;;21.21;39.62;101304.19;5021587;28;45466;-75
2022/05/15 00:10:30;;;;;;;;;8.00;7.00;;;;;21.15;39.50;101295.59;5019789;28;47800;-75
2022/05/15 00:12:56;;;;;;;;;7.00;6.75;;;;;21.24;39.82;101309.41;5029942;28;45362;-75
2022/05/15 00:15:21;;;;;;;;;8.00;8.00;;;;;21.22;40.03;101303.22;5032253;28;45200;-75
2022/05/15 00:17:47;;;;;;;;;8.75;7.25;;;;;21.23;39.86;101294.09;5036734;28;45689;-75
2022/05/15 00:20:12;;;;;;;;;7.50;6.25;;;;;21.21;40.05;101293.31;5032209;28;45348;-75
2022/05/15 00:22:37;;;;;;;;;6.00;5.50;;;;;21.20;40.11;101283.44;5037117;28;45254;-75
2022/05/15 00:25:03;;;;;;;;;8.00;8.00;;;;;21.19;40.55;101278.13;5032510;28;45589;-75
2022/05/15 00:27:29;;;;;;;;;10.00;8.00;;;;;21.20;39.83;101279.84;5020589;28;45696;-75
2022/05/15 00:29:54;;;;;;;;;7.00;7.00;;;;;21.20;40.10;101282.56;5031337;28;46223;-75
2022/05/15 00:32:19;;;;;;;;;6.50;6.25;;;;;21.11;40.34;101273.22;5026281;28;45314;-75
2022/05/15 00:34:45;;;;;;;;;4.50;4.50;;;;;21.15;40.44;101282.91;5040023;28;45286;-75
2022/05/15 00:37:10;;;;;;;;;7.50;6.00;;;;;21.14;40.17;101274.84;5025769;28;45251;-75
2022/05/15 00:39:35;;;;;;;;;7.50;5.75;;;;;21.16;40.36;101284.63;5031064;28;45503;-75
2022/05/15 00:42:00;;;;;;;;;7.75;6.50;;;;;21.14;40.30;101288.44;5033198;28;45428;-75
2022/05/15 00:44:26;;;;;;;;;6.00;6.00;;;;;21.12;40.55;101287.63;5028289;28;45394;-75
2022/05/15 00:46:51;;;;;;;;;5.50;5.50;;;;;21.11;40.70;101289.50;5023863;28;45656;-76
2022/05/15 00:49:16;;;;;;;;;7.25;7.25;;;;;21.09;40.92;101284.16;5029546;28;45406;-75
2022/05/15 00:51:42;;;;;;;;;8.25;5.25;;;;;21.08;40.49;101284.28;5024002;28;45766;-75
2022/05/15 00:54:28;;;;;;;;;6.75;5.00;;;;;21.02;40.53;101271.13;5019644;28;45471;-75
2022/05/15 00:57:09;;;;;;;;;5.75;5.25;;;;;20.99;40.89;101257.78;5030351;28;45344;-75
2022/05/15 00:59:45;;;;;;;;;5.00;5.00;;;;;20.99;40.73;101255.06;5031673;28;48040;-75
2022/05/15 01:02:13;;;;;;;;;5.75;5.00;;;;;20.98;40.25;101258.75;5039433;28;45436;-75
2022/05/15 01:04:39;;;;;;;;;6.00;3.25;;;;;20.97;40.71;101254.31;5022829;28;45461;-75
2022/05/15 01:07:04;;;;;;;;;4.25;3.75;;;;;20.95;40.69;101248.97;5025525;28;45204;-75
2022/05/15 01:09:30;;;;;;;;;4.50;4.00;;;;;20.96;40.24;101247.13;5033942;28;46349;-75
2022/05/15 01:11:57;;;;;;;;;4.75;4.75;;;;;20.98;40.30;101254.19;5019590;28;45346;-75
2022/05/15 01:14:24;;;;;;;;;6.00;4.50;;;;;20.95;40.81;101248.97;5024353;28;45225;-75
2022/05/15 01:16:49;;;;;;;;;4.00;4.00;;;;;20.93;40.80;101245.47;5032146;28;45380;-75
2022/05/15 01:19:14;;;;;;;;;4.00;4.00;;;;;20.90;40.68;101246.56;5022723;28;46200;-75
2022/05/15 01:21:56;;;;;;;;;4.50;4.50;;;;;20.89;40.39;101241.25;5023716;28;45960;-75
2022/05/15 01:24:21;;;;;;;;;6.50;5.25;;;;;20.82;40.86;101246.22;5034744;28;45763;-75
2022/05/15 01:26:47;;;;;;;;;6.25;6.25;;;;;20.84;40.79;101251.53;5037026;28;45342;-75
2022/05/15 01:29:13;;;;;;;;;5.00;4.00;;;;;20.78;40.97;101244.69;5024657;28;45208;-75
2022/05/15 01:31:38;;;;;;;;;5.50;5.25;;;;;20.75;40.85;101244.00;5037942;28;45391;-75
2022/05/15 01:34:07;;;;;;;;;5.25;5.00;;;;;20.76;41.11;101253.91;5036032;28;45362;-75
2022/05/15 01:36:33;;;;;;;;;5.00;5.00;;;;;20.72;40.97;101243.25;5022351;28;45438;-75
2022/05/15 01:38:58;;;;;;;;;6.25;5.00;;;;;20.70;40.81;101238.91;5034905;28;46042;-75
2022/05/15 01:41:25;;;;;;;;;6.25;4.00;;;;;20.70;41.23;101244.34;5022310;28;45291;-75
2022/05/15 01:43:53;;;;;;;;;4.75;4.75;;;;;20.68;40.94;101233.59;5022686;28;45234;-75
2022/05/15 01:46:21;;;;;;;;;4.75;4.75;;;;;20.67;41.14;101228.25;5024758;28;45489;-75
2022/05/15 01:48:47;;;;;;;;;4.00;4.00;;;;;20.62;41.35;101219.53;5022265;28;46037;-75
2022/05/15 01:51:13;;;;;;;;;4.50;4.50;;;;;20.60;40.75;101221.47;5037543;28;45932;-76
2022/05/15 01:53:39;;;;;;;;;4.00;4.00;;;;;20.59;41.31;101225.16;5030633;28;45220;-75
2022/05/15 01:56:05;;;;;;;;;6.00;5.00;;;;;20.54;41.24;101223.63;5029175;28;45301;-75
2022/05/15 01:58:30;;;;;;;;;6.00;5.00;;;;;20.52;41.28;101222.00;5035055;28;45351;-75
2022/05/15 02:00:55;;;;;;;;;4.25;4.25;;;;;20.48;41.37;101213.19;5035024;28;45288;-75
2022/05/15 02:03:20;;;;;;;;;6.75;5.50;;;;;20.53;41.39;101224.59;5036019;28;45169;-75
2022/05/15 02:05:46;;;;;;;;;5.50;4.25;;;;;20.51;41.11;101213.00;5022214;28;45300;-75
2022/05/15 02:08:12;;;;;;;;;5.75;5.50;;;;;20.52;41.54;101216.56;5021686;28;45425;-75
2022/05/15 02:10:37;;;;;;;;;2.25;2.25;;;;;20.48;41.32;101209.59;5030023;28;45247;-75
2022/05/15 02:13:02;;;;;;;;;5.00;5.00;;;;;20.46;41.46;101203.41;5024789;28;45917;-75
2022/05/15 02:15:28;;;;;;;;;5.00;4.50;;;;;20.44;41.16;101195.38;5027102;28;45386;-75
2022/05/15 02:17:53;;;;;;;;;4.25;4.00;;;;;20.44;41.55;101195.38;5022122;28;45288;-75
2022/05/15 02:20:19;;;;;;;;;7.00;6.50;;;;;20.44;41.37;101191.81;5021850;28;45342;-76
2022/05/15 02:22:44;;;;;;;;;5.75;5.75;;;;;20.43;41.40;101190.94;5027663;28;45302;-75
2022/05/15 02:25:12;;;;;;;;;5.00;5.00;;;;;20.43;41.60;101187.34;5028550;28;45381;-75
2022/05/15 02:27:37;;;;;;;;;4.25;4.25;;;;;20.40;41.45;101182.13;5036312;28;47518;-75
2022/05/15 02:30:04;;;;;;;;;4.50;4.00;;;;;20.35;41.62;101177.88;5030452;28;45375;-75
2022/05/15 02:32:30;;;;;;;;;5.00;4.00;;;;;20.36;41.73;101185.06;5034790;28;45345;-75
2022/05/15 02:34:55;;;;;;;;;3.00;3.00;;;;;20.32;41.50;101190.78;5021651;28;45307;-75
2022/05/15 02:37:20;;;;;;;;;4.00;3.75;;;;;20.29;41.54;101186.41;5021370;28;45347;-75
2022/05/15 02:39:47;;;;;;;;;5.00;5.00;;;;;20.28;42.00;101182.00;5021217;28;45224;-75
2022/05/15 02:42:12;;;;;;;;;5.25;5.25;;;;;20.25;41.63;101173.19;5027691;28;45469;-75
2022/05/15 02:44:37;;;;;;;;;4.25;4.25;;;;;20.30;41.67;101193.59;5037114;28;45658;-75
2022/05/15 02:47:03;;;;;;;;;6.50;5.00;;;;;20.30;41.91;101188.16;5026157;28;45342;-75
2022/05/15 02:52:12;;;;;;;;;5.00;3.25;;;;;20.27;42.01;101182.94;5028867;28;45497;-76
2022/05/15 02:54:38;;;;;;;;;4.75;4.75;;;;;20.29;41.83;101186.41;5025776;28;45737;-75
2022/05/15 02:57:05;;;;;;;;;5.25;4.50;;;;;20.31;41.99;101189.91;5035850;28;46841;-76
2022/05/15 02:59:31;;;;;;;;;5.00;3.00;;;;;20.36;42.09;101197.72;5022363;28;45598;-75
2022/05/15 03:01:57;;;;;;;;;5.00;4.00;;;;;20.36;41.56;101192.31;5032736;28;45509;-76
2022/05/15 03:04:22;;;;;;;;;3.00;3.00;;;;;20.31;41.77;101198.06;5025899;28;45476;-76
2022/05/15 03:06:47;;;;;;;;;5.00;5.00;;;;;20.23;41.57;101184.13;5020942;28;45353;-75
2022/05/15 03:09:13;;;;;;;;;5.25;4.00;;;;;20.18;41.70;101192.56;5031332;28;45283;-75
2022/05/15 03:11:38;;;;;;;;;5.50;4.00;;;;;20.12;41.76;101173.13;5021318;28;45339;-75
2022/05/15 03:14:04;;;;;;;;;4.00;4.00;;;;;20.12;41.79;101189.38;5023615;28;45521;-75
2022/05/15 03:16:31;;;;;;;;;3.50;3.50;;;;;20.11;41.72;101184.91;5035223;28;48086;-75
2022/05/15 03:18:56;;;;;;;;;3.75;3.00;;;;;20.06;41.97;101178.94;5024862;28;45157;-75
2022/05/15 03:21:30;;;;;;;;;4.00;3.00;;;;;20.04;41.93;101173.63;5020776;28;45412;-75
2022/05/15 03:23:59;;;;;;;;;4.75;4.00;;;;;20.02;41.92;101180.97;5032528;28;45828;-76
2022/05/15 03:26:26;;;;;;;;;4.25;4.25;;;;;19.96;41.87;101166.00;5035935;28;47273;-75
2022/05/15 03:28:52;;;;;;;;;3.25;2.50;;;;;19.93;41.92;101168.03;5039398;28;45881;-75
2022/05/15 03:31:17;;;;;;;;;4.00;4.00;;;;;19.92;41.84;101172.56;5034038;28;45317;-75
2022/05/15 03:33:43;;;;;;;;;4.00;2.50;;;;;19.92;42.00;101166.28;5027585;28;45422;-75
2022/05/15 03:36:11;;;;;;;;;5.00;3.50;;;;;19.97;42.08;101166.88;5020495;28;45426;-75
2022/05/15 03:38:41;;;;;;;;;3.00;3.00;;;;;19.95;42.03;101168.81;5019143;28;45425;-75
2022/05/15 03:41:07;;;;;;;;;2.75;2.75;;;;;19.95;42.08;101160.69;5020900;28;45439;-75
2022/05/15 03:43:33;;;;;;;;;5.00;4.00;;;;;19.96;41.97;101157.88;5020427;28;45585;-75
2022/05/15 03:45:59;;;;;;;;;4.25;4.25;;;;;19.95;42.13;101158.84;5023523;28;45471;-75
2022/05/15 03:48:24;;;;;;;;;5.00;3.00;;;;;19.92;41.73;101150.91;5035666;28;45417;-75
2022/05/15 03:50:49;;;;;;;;;4.50;3.75;;;;;19.92;42.04;101145.47;5026018;28;45161;-76
2022/05/15 03:53:15;;;;;;;;;4.50;3.25;;;;;19.92;42.22;101142.78;5031142;28;45163;-75
2022/05/15 03:55:41;;;;;;;;;3.25;3.25;;;;;19.94;42.06;101145.38;5030502;28;45267;-75
2022/05/15 03:58:06;;;;;;;;;4.75;4.75;;;;;19.94;42.18;101148.09;5020165;28;45137;-75
2022/05/15 04:00:31;;;;;;;;;4.75;4.75;;;;;19.94;42.25;101138.13;5020530;28;45426;-75
2022/05/15 04:02:57;;;;;;;;;5.00;5.00;;;;;19.86;42.05;101139.59;5036424;28;45145;-75
2022/05/15 04:05:22;;;;;;;;;2.50;2.00;;;;;19.85;42.07;101138.75;5019912;28;45879;-75
2022/05/15 04:07:50;;;;;;;;;3.00;3.00;;;;;19.85;42.07;101152.28;5019609;28;45212;-75
2022/05/15 04:10:19;;;;;;;;;4.50;4.50;;;;;19.80;42.18;101140.88;5020117;28;45395;-75
2022/05/15 04:12:44;;;;;;;;;5.25;5.00;;;;;19.76;42.24;101139.31;5019927;28;45379;-75
2022/05/15 04:15:11;;;;;;;;;5.25;4.00;;;;;19.78;42.49;101153.66;5022830;28;45200;-75
2022/05/15 04:17:49;;;;;;;;;4.00;4.00;;;;;19.77;42.36;101150.06;5019965;28;45355;-75
2022/05/15 04:20:17;;;;;;;;;4.25;4.25;;;;;19.79;42.40;101153.53;5034175;28;45386;-75
2022/05/15 04:22:43;;;;;;;;;3.50;3.25;;;;;19.79;42.35;101150.81;5033134;28;45657;-75
2022/05/15 04:25:10;;;;;;;;;4.75;4.00;;;;;19.73;42.33;101139.47;5019716;28;46756;-75
2022/05/15 04:27:36;;;;;;;;;5.00;4.00;;;;;19.75;42.10;101148.44;5026528;28;45464;-75
2022/05/15 04:30:02;;;;;;;;;4.25;3.00;;;;;19.71;42.38;101147.72;5038823;28;45212;-75
2022/05/15 04:32:28;;;;;;;;;3.00;3.00;;;;;19.67;42.50;101137.19;5019657;28;46317;-75
2022/05/15 04:34:53;;;;;;;;;5.00;5.00;;;;;19.63;42.75;101129.25;5032300;28;45633;-75
2022/05/15 04:37:19;;;;;;;;;2.75;2.75;;;;;19.67;42.64;101137.19;5032730;28;45402;-75
2022/05/15 04:39:44;;;;;;;;;2.00;0.50;;;;;19.63;42.71;101131.09;5032870;28;45264;-75
2022/05/15 04:42:10;;;;;;;;;5.25;4.25;;;;;19.67;42.53;101132.63;5019882;28;45260;-75
2022/05/15 04:44:35;;;;;;;;;2.00;2.00;;;;;19.63;42.55;101129.25;5024611;28;45298;-75
2022/05/15 04:47:01;;;;;;;;;4.25;4.25;;;;;19.60;42.49;101120.47;5024252;28;45421;-75
2022/05/15 04:49:26;;;;;;;;;4.25;4.25;;;;;19.59;42.50;101130.41;5026462;28;45382;-75
2022/05/15 04:51:51;;;;;;;;;3.50;3.50;;;;;19.56;42.72;101133.34;5028266;28;45437;-75
2022/05/15 04:54:17;;;;;;;;;4.00;4.00;;;;;19.48;43.00;101134.78;5042821;28;45894;-75
2022/05/15 04:56:42;;;;;;;;;5.00;4.00;;;;;19.46;43.04;101134.00;5037947;28;45323;-75
2022/05/15 04:59:08;;;;;;;;;5.00;4.00;;;;;19.51;42.96;101142.69;5023307;28;45252;-75
2022/05/15 05:01:33;;;;;;;;;5.50;4.25;;;;;19.54;43.32;101154.19;5040967;28;45322;-75
2022/05/15 05:03:59;;;;;;;;;4.25;4.25;;;;;19.61;43.06;101157.38;5038658;28;45998;-76
2022/05/15 05:06:26;;;;;;;;;4.25;3.25;;;;;19.60;43.23;101161.09;5041179;28;45431;-75
2022/05/15 05:08:52;;;;;;;;;2.75;2.75;;;;;19.63;43.30;101153.63;5030749;28;45166;-75
2022/05/15 05:11:18;;;;;;;;;4.50;4.50;;;;;19.64;43.24;101162.63;5022781;28;45352;-75
2022/05/15 05:13:43;;;;;;;;;4.25;4.00;;;;;19.61;43.20;101161.00;5023307;28;45965;-75
2022/05/15 05:16:09;;;;;;;;;5.00;4.00;;;;;19.59;42.90;101154.78;5022812;28;45429;-75
2022/05/15 05:18:35;;;;;;;;;5.00;3.00;;;;;19.56;43.16;101159.53;5026159;28;45442;-75
2022/05/15 05:21:00;;;;;;;;;4.00;4.00;;;;;19.52;42.81;101163.41;5022332;28;45302;-75
2022/05/15 05:23:25;;;;;;;;;5.00;5.00;;;;;19.44;43.19;101156.66;5022556;28;45565;-75
2022/05/15 05:25:51;;;;;;;;;4.50;4.50;;;;;19.46;42.96;101172.75;5022483;28;45343;-75
2022/05/15 05:28:16;;;;;;;;;5.50;4.50;;;;;19.39;43.02;101161.44;5022816;28;45282;-75
2022/05/15 05:30:42;;;;;;;;;5.50;5.50;;;;;19.41;43.15;101169.47;5031658;28;45309;-75
2022/05/15 05:33:09;;;;;;;;;4.00;4.00;;;;;19.38;43.16;101164.28;5036375;28;45240;-75
2022/05/15 05:35:36;;;;;;;;;4.75;4.00;;;;;19.33;43.35;101155.56;5035849;28;45747;-76
2022/05/15 05:38:01;;;;;;;;;4.75;4.75;;;;;19.34;43.15;101160.88;5022463;28;45410;-75
2022/05/15 05:40:27;;;;;;;;;4.75;4.50;;;;;19.34;43.39;101158.16;5022412;28;45291;-75
2022/05/15 05:42:52;;;;;;;;;3.00;2.25;;;;;19.38;43.44;101161.59;5022531;28;46562;-75
2022/05/15 05:45:18;;;;;;;;;5.25;4.00;;;;;19.40;43.54;101168.63;5025170;28;45319;-75
2022/05/15 05:47:46;;;;;;;;;4.00;4.00;;;;;19.42;43.39;101172.09;5024746;28;45315;-75
2022/05/15 05:50:12;;;;;;;;;5.25;4.25;;;;;19.36;43.53;101158.97;5035416;28;45376;-75
2022/05/15 05:52:39;;;;;;;;;5.00;4.25;;;;;19.37;43.49;101159.81;5027729;28;46137;-75
2022/05/15 05:55:06;;;;;;;;;2.75;2.00;;;;;19.41;43.43;101169.47;5021778;28;46232;-73
2022/05/15 05:57:31;;;;;;;;;4.00;4.00;;;;;19.36;43.21;101158.97;5033028;28;45298;-75
2022/05/15 05:59:57;;;;;;;;;5.00;4.25;;;;;19.36;43.39;101164.38;5036843;28;45516;-75
2022/05/15 06:02:25;;;;;;;;;6.25;5.75;;;;;19.38;43.67;101156.16;5032490;28;45962;-75
2022/05/15 06:04:50;;;;;;;;;6.25;4.50;;;;;19.39;43.64;101152.47;5028832;28;45339;-75
2022/05/15 06:07:26;;;;;;;;;6.00;4.00;;;;;19.39;43.45;101147.91;5021768;28;45623;-75
2022/05/15 06:09:52;;;;;;;;;4.25;4.25;;;;;19.42;43.39;101147.72;5043946;28;45883;-75
2022/05/15 06:12:21;;;;;;;;;6.25;4.25;;;;;19.43;43.62;101154.03;5028275;28;47286;-75
2022/05/15 06:14:47;;;;;;;;;5.00;4.50;;;;;19.45;43.67;101152.09;5029626;28;45471;-75
2022/05/15 06:17:12;;;;;;;;;6.75;5.50;;;;;19.48;43.50;101157.31;5038814;28;45224;-76
2022/05/15 06:19:38;;;;;;;;;5.75;5.75;;;;;19.51;43.68;101154.44;5032683;28;45503;-76
2022/05/15 06:22:04;;;;;;;;;4.00;4.00;;;;;19.51;43.44;101157.13;5039547;28;47128;-74
2022/05/15 06:24:29;;;;;;;;;4.00;4.00;;;;;19.48;42.95;101151.00;5036433;28;45559;-75
2022/05/15 06:27:02;;;;;;;;;6.75;5.25;;;;;19.60;43.36;101163.78;5029262;28;45481;-70
2022/05/15 06:29:28;;;;;;;;;5.00;5.00;;;;;19.57;43.19;101159.44;5029550;28;45624;-68
2022/05/15 06:31:53;;;;;;;;;4.75;4.75;;;;;19.55;42.95;101155.09;5024057;28;46339;-73
2022/05/15 06:34:19;;;;;;;;;5.25;3.00;;;;;19.57;43.05;101163.97;5032356;28;45481;-73
2022/05/15 06:36:44;;;;;;;;;3.50;3.50;;;;;19.57;43.10;101170.25;5034862;28;46588;-73
2022/05/15 06:39:10;;;;;;;;;6.00;4.00;;;;;19.58;43.01;101172.00;5025894;28;45374;-73
2022/05/15 06:41:36;;;;;;;;;5.00;4.00;;;;;19.57;43.18;101163.97;5038836;28;46087;-74
2022/05/15 06:44:01;;;;;;;;;3.50;3.50;;;;;19.48;43.47;101148.31;5034190;28;45870;-73
2022/05/15 06:46:28;;;;;;;;;4.00;4.00;;;;;19.61;43.42;101165.50;5030744;28;45601;-74
2022/05/15 06:48:53;;;;;;;;;4.00;4.00;;;;;19.61;43.33;101169.13;5029339;28;45262;-74
2022/05/15 06:51:19;;;;;;;;;3.25;3.25;;;;;19.66;43.44;101170.66;5032544;28;47570;-76
2022/05/15 06:53:46;;;;;;;;;4.00;4.00;;;;;19.72;43.10;101171.13;5039553;28;45350;-75
2022/05/15 06:58:55;;;;;;;;;4.00;3.50;;;;;19.75;43.29;101170.09;5038307;28;45328;-73
2022/05/15 07:01:21;;;;;;;;;7.25;5.00;;;;;19.75;43.44;101159.25;5027299;28;46210;-72
2022/05/15 07:03:46;;;;;;;;;5.25;3.00;;;;;19.70;43.10;101134.28;5038350;28;45877;-73
2022/05/15 07:06:12;;;;;;;;;3.75;3.25;;;;;19.73;43.53;101139.47;5027326;28;45499;-72
2022/05/15 07:08:38;;;;;;;;;3.50;3.50;;;;;19.79;43.54;101139.97;5022090;28;45596;-73
2022/05/15 07:11:04;;;;;;;;;4.25;4.25;;;;;19.85;43.39;101137.88;5035269;28;47165;-74
2022/05/15 07:13:29;;;;;;;;;3.75;3.00;;;;;19.90;43.51;101133.03;5021448;28;45434;-74
2022/05/15 07:15:55;;;;;;;;;5.25;4.00;;;;;19.88;43.20;101121.41;5030873;28;45408;-73
2022/05/15 07:18:23;;;;;;;;;3.75;3.25;;;;;19.98;43.13;101133.41;5030089;28;45401;-73
2022/05/15 07:20:49;;;;;;;;;7.25;4.00;;;;;20.08;43.05;101126.41;5027547;28;46203;-73
2022/05/15 07:23:15;;;;;;;;;3.75;3.75;;;;;20.12;42.84;101129.75;5040485;28;45418;-74
2022/05/15 07:25:40;;;;;;;;;5.25;4.25;;;;;20.13;42.59;101117.94;5027191;28;45265;-72
2022/05/15 07:28:06;;;;;;;;;3.75;3.50;;;;;20.17;42.73;101114.06;5026439;28;45299;-73
2022/05/15 07:30:31;;;;;;;;;5.75;4.00;;;;;20.23;42.77;101112.78;5035494;28;45398;-72
2022/05/15 07:32:57;;;;;;;;;4.25;4.25;;;;;20.29;42.71;101109.66;5036508;28;45701;-72
2022/05/15 07:35:22;;;;;;;;;4.75;4.75;;;;;20.30;42.78;101097.84;5023103;28;46094;-72
2022/05/15 07:37:47;;;;;;;;;4.75;4.50;;;;;20.40;42.51;101106.19;5033836;28;45169;-72
2022/05/15 07:40:13;;;;;;;;;5.50;5.50;;;;;20.44;42.43;101100.47;5031770;28;45969;-72
2022/05/15 07:42:39;;;;;;;;;4.50;3.50;;;;;20.53;42.29;101102.56;5027091;28;45325;-75
2022/05/15 07:45:06;;;;;;;;;4.00;4.00;;;;;20.60;42.43;101105.72;5036142;28;45354;-69
2022/05/15 07:47:31;;;;;;;;;4.00;4.00;;;;;20.62;42.47;101109.19;5027017;28;45357;-74
2022/05/15 07:49:58;;;;;;;;;4.75;3.00;;;;;20.76;42.43;101107.41;5021788;28;45324;-72
2022/05/15 07:52:24;;;;;;;;;3.50;3.25;;;;;20.83;41.88;101095.13;5032445;28;45458;-73
2022/05/15 07:54:50;;;;;;;;;2.00;2.00;;;;;20.92;42.06;101097.22;5025537;28;45166;-73
2022/05/15 07:57:15;;;;;;;;;3.00;3.00;;;;;20.98;41.73;101087.78;5030125;28;45422;-72
2022/05/15 07:59:40;;;;;;;;;4.00;4.00;;;;;21.05;41.79;101084.53;5029051;28;46254;-73
2022/05/15 08:02:06;;;;;;;;;3.00;3.00;;;;;21.14;41.76;101084.84;5034144;28;45247;-73
2022/05/15 08:08:00;;;;;;;;;3.00;3.00;;;;;21.15;41.11;101073.00;5022442;28;45157;-72
2022/05/15 08:10:02;;;;;;;;;4.75;3.50;;;;;21.45;41.23;101073.50;5030949;28;45305;-72
2022/05/15 08:12:28;;;;;;;;;4.00;4.00;;;;;21.51;41.07;101064.06;5037058;28;45331;-72
2022/05/15 08:14:53;;;;;;;;;3.75;3.75;;;;;21.55;41.05;101051.13;5035595;28;45267;-72
2022/05/15 08:17:18;;;;;;;;;3.00;1.75;;;;;21.64;40.54;101058.59;5022883;28;45568;-71
2022/05/15 08:25:13;;;;;;;;;4.25;3.00;;;;;21.95;40.28;101056.28;5038952;28;45165;-72
2022/05/15 08:27:39;;;;;;;;;4.00;4.00;;;;;22.03;40.13;101048.44;5039745;28;45618;-71
2022/05/15 08:30:05;;;;;;;;;4.50;4.50;;;;;22.04;39.93;101047.47;5028849;28;46167;-72
2022/05/15 08:32:31;;;;;;;;;4.50;3.25;;;;;22.10;39.30;101041.56;5039869;28;46338;-71
2022/05/15 08:34:59;;;;;;;;;2.00;2.00;;;;;22.11;39.88;101043.28;5037565;28;45302;-72
2022/05/15 08:37:25;;;;;;;;;3.00;3.00;;;;;22.16;39.45;101042.94;5029822;28;45540;-71
2022/05/15 08:39:50;;;;;;;;;4.00;2.75;;;;;22.20;39.27;101044.41;5019331;28;46188;-72
2022/05/15 08:42:22;;;;;;;;;3.25;3.00;;;;;22.26;39.33;101038.53;5027856;28;45727;-71
2022/05/15 08:44:54;;;;;;;;;3.50;3.50;;;;;22.30;39.69;101031.03;5021177;28;45306;-71
2022/05/15 08:47:41;;;;;;;;;3.00;3.00;;;;;22.42;39.57;101029.19;5030660;28;45347;-71
2022/05/15 08:50:13;;;;;;;;;2.50;2.50;;;;;22.50;39.27;101026.75;5022677;28;46401;-67
2022/05/15 08:53:04;;;;;;;;;3.75;3.00;;;;;22.54;39.17;101020.94;5028585;28;45233;-73
2022/05/15 08:55:35;;;;;;;;;2.50;2.50;;;;;22.65;39.25;101027.41;5019466;28;45318;-73
2022/05/15 08:58:11;;;;;;;;;3.00;2.50;;;;;22.73;38.78;101031.25;5019409;28;45331;-73
2022/05/15 09:00:41;;;;;;;;;3.00;3.00;;;;;22.77;38.71;101023.72;5019463;28;46080;-73
2022/05/15 09:03:13;;;;;;;;;3.50;2.00;;;;;22.82;38.83;101026.94;5019391;28;45275;-73
2022/05/15 09:05:46;;;;;;;;;2.00;2.00;;;;;22.85;38.97;101026.69;5019853;28;45380;-73
2022/05/15 09:08:26;;;;;;;;;3.00;3.00;;;;;22.88;38.69;101031.88;5018978;28;45315;-73
2022/05/15 09:11:06;;;;;;;;;3.00;3.00;;;;;22.92;38.32;101024.31;5032636;28;45326;-73
2022/05/15 09:13:36;;;;;;;;;2.00;2.00;;;;;22.94;38.27;101022.38;5020043;28;45292;-73
2022/05/15 09:16:03;;;;;;;;;2.75;2.75;;;;;22.99;38.37;101013.81;5032914;28;45346;-74
2022/05/15 09:18:33;;;;;;;;;3.25;3.25;;;;;23.02;39.08;101006.28;5023381;28;45541;-73
2022/05/15 09:21:07;;;;;;;;;3.00;3.00;;;;;23.15;38.52;101013.47;5019489;28;45903;-73
2022/05/15 09:23:37;;;;;;;;;3.00;2.00;;;;;23.18;38.46;101008.66;5034142;28;45997;-73
2022/05/15 09:26:05;;;;;;;;;3.00;2.50;;;;;23.25;38.02;101014.47;5024774;28;45383;-73
2022/05/15 09:28:41;;;;;;;;;2.00;2.00;;;;;23.31;38.68;101006.66;5034412;28;46035;-73
2022/05/15 09:31:22;;;;;;;;;2.50;2.00;;;;;23.37;37.63;100994.41;5036826;28;47443;-73
2022/05/15 09:33:59;;;;;;;;;3.00;3.00;;;;;23.44;38.25;101001.06;5020937;28;45248;-74
2022/05/15 09:36:29;;;;;;;;;2.50;2.50;;;;;23.54;37.83;101003.00;5023083;28;45264;-73
2022/05/15 09:39:27;;;;;;;;;3.75;3.00;;;;;23.62;37.86;101001.41;5036716;28;45488;-73
2022/05/15 09:44:45;;;;;;;;;2.00;2.00;;;;;23.63;36.12;100984.03;5027173;28;45423;-71
2022/05/15 09:47:27;;;;;;;;;1.50;1.50;;;;;23.81;36.05;100994.41;5032620;28;45499;-71
2022/05/15 09:49:53;;;;;;;;;2.00;2.00;;;;;23.85;35.99;100987.72;5022981;28;45500;-73
2022/05/15 09:52:44;;;;;;;;;2.00;2.00;;;;;23.92;35.44;100991.66;5022264;28;45359;-73
2022/05/15 09:55:23;;;;;;;;;3.00;2.00;;;;;23.97;35.73;100988.53;5019792;28;45375;-73
2022/05/15 09:57:58;;;;;;;;;2.00;2.00;;;;;24.05;35.48;100977.84;5040396;28;45401;-69
2022/05/15 10:00:27;;;;;;;;;4.50;3.75;;;;;24.11;35.37;100980.06;5026837;28;45516;-67
2022/05/15 10:02:56;;;;;;;;;2.00;2.00;;;;;24.16;35.42;100972.34;5024331;28;46204;-67
2022/05/15 10:05:27;;;;;;;;;0.00;0.00;;;;;24.24;35.09;100968.97;5027693;28;45666;-70
2022/05/15 10:08:11;;;;;;;;;3.00;3.00;;;;;24.31;34.68;100967.41;5030520;28;45495;-69
2022/05/15 10:10:45;;;;;;;;;1.50;1.50;;;;;24.37;34.54;100972.34;5026038;28;45535;-70
2022/05/15 10:13:40;;;;;;;;;1.25;1.25;;;;;24.45;33.97;100968.06;5030026;28;47144;-68
2022/05/15 10:16:17;;;;;;;;;2.00;2.00;;;;;24.51;33.40;100956.63;5019912;28;45354;-67
2022/05/15 10:18:53;;;;;;;;;3.75;2.00;;;;;24.57;34.08;100950.66;5032761;28;45793;-66
2022/05/15 10:21:22;;;;;;;;;2.00;2.00;;;;;24.67;33.89;100948.81;5017909;28;45474;-66
2022/05/15 10:23:56;;;;;;;;;1.00;1.00;;;;;24.74;32.93;100941.84;5017811;28;45457;-67
2022/05/15 10:26:32;;;;;;;;;1.00;1.00;;;;;24.87;33.98;100949.78;5017491;28;45530;-66
2022/05/15 10:29:11;;;;;;;;;3.00;3.00;;;;;24.92;33.43;100947.50;5025888;28;45442;-67
2022/05/15 10:31:47;;;;;;;;;2.00;2.00;;;;;24.98;34.29;100939.78;5020792;28;45357;-70
2022/05/15 10:34:15;;;;;;;;;2.75;2.25;;;;;25.01;33.46;100936.75;5030561;28;45584;-73
2022/05/15 10:37:06;;;;;;;;;3.50;2.00;;;;;25.07;34.31;100928.84;5016892;28;45822;-74
2022/05/15 10:39:56;;;;;;;;;2.00;2.00;;;;;25.14;34.22;100930.06;5021051;28;45682;-75
2022/05/15 10:43:01;;;;;;;;;2.00;2.00;;;;;25.21;33.69;100932.19;5023771;28;45465;-78
2022/05/15 10:45:29;;;;;;;;;2.50;2.50;;;;;25.27;34.00;100927.06;5021943;28;45800;-78
2022/05/15 10:48:08;;;;;;;;;3.00;2.00;;;;;25.31;33.38;100935.88;5021223;28;46153;-78
2022/05/15 10:50:43;;;;;;;;;2.75;2.00;;;;;25.36;33.29;100929.97;5034673;28;45453;-78
2022/05/15 10:59:35;;;;;;;;;2.75;1.50;;;;;25.58;33.45;100907.00;5025498;28;45469;-78
2022/05/15 11:02:32;;;;;;;;;2.25;2.25;;;;;25.64;33.66;100909.13;5029644;28;45419;-78
2022/05/15 11:05:12;;;;;;;;;2.00;2.00;;;;;25.61;33.33;100907.56;5028181;28;45278;-78
2022/05/15 11:08:03;;;;;;;;;3.00;3.00;;;;;25.71;32.77;100896.63;5028880;28;45284;-78
2022/05/15 11:11:00;;;;;;;;;2.25;2.25;;;;;25.79;33.06;100901.34;4999694;28;45461;-78
2022/05/15 11:13:35;;;;;;;;;2.00;2.00;;;;;25.84;33.18;100893.59;5025155;28;45443;-79
2022/05/15 11:16:11;;;;;;;;;2.50;2.25;;;;;25.89;32.28;100896.75;5034199;28;45413;-78
2022/05/15 11:19:14;;;;;;;;;3.25;2.25;;;;;25.94;32.78;100896.31;5020379;28;45532;-78
2022/05/15 11:22:18;;;;;;;;;3.00;3.00;;;;;25.98;32.42;100887.72;5020931;28;45395;-78
2022/05/15 11:24:59;;;;;;;;;3.25;3.25;;;;;26.02;32.62;100888.28;5028913;28;45292;-78
2022/05/15 11:28:10;;;;;;;;;3.00;3.00;;;;;26.09;32.63;100883.94;5036037;28;45236;-79
2022/05/15 11:30:41;;;;;;;;;1.25;1.25;;;;;26.11;32.24;100881.94;5036656;28;45475;-79
2022/05/15 11:33:31;;;;;;;;;2.00;2.00;;;;;26.18;31.68;100884.94;5036103;28;45279;-78
2022/05/15 11:36:29;;;;;;;;;3.00;2.00;;;;;26.22;31.40;100884.47;5036315;28;45465;-79
2022/05/15 11:38:55;;;;;;;;;2.00;2.00;;;;;26.20;31.15;100878.28;5024349;28;45485;-79
2022/05/15 11:41:35;;;;;;;;;1.00;1.00;;;;;26.22;31.03;100870.78;5035814;28;45338;-79
2022/05/15 11:44:14;;;;;;;;;2.50;2.50;;;;;26.23;30.81;100866.19;5020825;28;45429;-79
2022/05/15 11:46:46;;;;;;;;;2.00;2.00;;;;;26.24;30.65;100862.44;5026537;28;45251;-78
2022/05/15 11:49:26;;;;;;;;;3.00;3.00;;;;;26.28;30.86;100857.53;5035829;28;45567;-78
2022/05/15 11:52:03;;;;;;;;;3.75;3.75;;;;;26.32;30.76;100862.56;5021088;28;45454;-78
2022/05/15 11:54:32;;;;;;;;;0.75;0.00;;;;;26.37;30.01;100871.19;5026732;28;45433;-78
2022/05/15 11:56:58;;;;;;;;;2.00;2.00;;;;;26.31;30.08;100849.91;5024691;28;45484;-78